sensor_id;sensor_type;location;lat;lon;timestamp;P1;durP1;ratioP1;P2;durP2;ratioP2
48685;SDS011;34485;51.536;3.816;2023-03-16T00:00:25;6.40;;;5.60;;
48685;SDS011;34485;51.536;3.816;2023-03-16T00:02:51;13.32;;;5.63;;
48685;SDS011;34485;51.536;3.816;2023-03-16T00:05:17;8.10;;;5.90;;
48685;SDS011;34485;51.536;3.816;2023-03-16T00:07:42;9.55;;;6.30;;
48685;SDS011;34485;51.536;3.816;2023-03-16T00:10:09;7.43;;;6.30;;
48685;SDS011;34485;51.536;3.816;2023-03-16T00:12:36;9.05;;;7.03;;
48685;SDS011;34485;51.536;3.816;2023-03-16T00:15:02;7.28;;;6.05;;
48685;SDS011;34485;51.536;3.816;2023-03-16T00:17:29;9.43;;;7.35;;
48685;SDS011;34485;51.536;3.816;2023-03-16T00:19:55;10.67;;;6.23;;
48685;SDS011;34485;51.536;3.816;2023-03-16T00:22:25;7.70;;;6.20;;
48685;SDS011;34485;51.536;3.816;2023-03-16T00:24:53;12.02;;;6.28;;
48685;SDS011;34485;51.536;3.816;2023-03-16T00:27:19;9.18;;;6.57;;
48685;SDS011;34485;51.536;3.816;2023-03-16T00:29:46;10.63;;;6.28;;
48685;SDS011;34485;51.536;3.816;2023-03-16T00:32:14;10.47;;;7.43;;
48685;SDS011;34485;51.536;3.816;2023-03-16T00:34:45;12.80;;;7.63;;
48685;SDS011;34485;51.536;3.816;2023-03-16T00:37:12;8.43;;;7.03;;
48685;SDS011;34485;51.536;3.816;2023-03-16T00:39:40;13.98;;;7.82;;
48685;SDS011;34485;51.536;3.816;2023-03-16T00:42:06;13.23;;;7.32;;
48685;SDS011;34485;51.536;3.816;2023-03-16T00:44:33;12.43;;;6.50;;
48685;SDS011;34485;51.536;3.816;2023-03-16T00:47:00;9.95;;;7.55;;
48685;SDS011;34485;51.536;3.816;2023-03-16T00:49:26;12.70;;;8.15;;
48685;SDS011;34485;51.536;3.816;2023-03-16T00:51:51;14.67;;;8.23;;
48685;SDS011;34485;51.536;3.816;2023-03-16T00:54:17;11.93;;;7.80;;
48685;SDS011;34485;51.536;3.816;2023-03-16T00:56:43;11.33;;;8.73;;
48685;SDS011;34485;51.536;3.816;2023-03-16T00:59:09;11.80;;;6.95;;
48685;SDS011;34485;51.536;3.816;2023-03-16T01:01:36;13.80;;;8.23;;
48685;SDS011;34485;51.536;3.816;2023-03-16T01:04:02;9.57;;;6.90;;
48685;SDS011;34485;51.536;3.816;2023-03-16T01:06:28;11.30;;;6.87;;
48685;SDS011;34485;51.536;3.816;2023-03-16T01:08:54;11.65;;;6.90;;
48685;SDS011;34485;51.536;3.816;2023-03-16T01:11:20;11.13;;;7.30;;
48685;SDS011;34485;51.536;3.816;2023-03-16T01:13:47;12.77;;;9.02;;
48685;SDS011;34485;51.536;3.816;2023-03-16T01:16:17;11.35;;;8.20;;
48685;SDS011;34485;51.536;3.816;2023-03-16T01:18:43;11.32;;;7.22;;
48685;SDS011;34485;51.536;3.816;2023-03-16T01:21:10;13.23;;;8.13;;
48685;SDS011;34485;51.536;3.816;2023-03-16T01:23:38;14.75;;;6.72;;
48685;SDS011;34485;51.536;3.816;2023-03-16T01:26:04;8.77;;;6.80;;
48685;SDS011;34485;51.536;3.816;2023-03-16T01:28:32;11.90;;;6.90;;
48685;SDS011;34485;51.536;3.816;2023-03-16T01:31:02;10.13;;;6.95;;
48685;SDS011;34485;51.536;3.816;2023-03-16T01:33:30;12.27;;;7.67;;
48685;SDS011;34485;51.536;3.816;2023-03-16T01:35:57;12.82;;;8.23;;
48685;SDS011;34485;51.536;3.816;2023-03-16T01:38:25;12.05;;;7.68;;
48685;SDS011;34485;51.536;3.816;2023-03-16T01:40:51;11.03;;;6.87;;
48685;SDS011;34485;51.536;3.816;2023-03-16T01:43:19;8.20;;;6.88;;
48685;SDS011;34485;51.536;3.816;2023-03-16T01:48:31;13.57;;;7.20;;
48685;SDS011;34485;51.536;3.816;2023-03-16T01:51:05;9.32;;;7.43;;
48685;SDS011;34485;51.536;3.816;2023-03-16T01:53:39;12.77;;;7.10;;
48685;SDS011;34485;51.536;3.816;2023-03-16T01:56:09;8.50;;;6.13;;
48685;SDS011;34485;51.536;3.816;2023-03-16T01:58:37;14.27;;;8.48;;
48685;SDS011;34485;51.536;3.816;2023-03-16T02:01:03;8.93;;;6.93;;
48685;SDS011;34485;51.536;3.816;2023-03-16T02:03:30;8.52;;;6.75;;
48685;SDS011;34485;51.536;3.816;2023-03-16T02:06:20;8.13;;;6.57;;
48685;SDS011;34485;51.536;3.816;2023-03-16T02:08:47;13.68;;;7.93;;
48685;SDS011;34485;51.536;3.816;2023-03-16T02:11:14;14.88;;;8.77;;
48685;SDS011;34485;51.536;3.816;2023-03-16T02:13:42;12.88;;;7.65;;
48685;SDS011;34485;51.536;3.816;2023-03-16T02:16:09;15.68;;;6.30;;
48685;SDS011;34485;51.536;3.816;2023-03-16T02:18:38;13.13;;;7.03;;
48685;SDS011;34485;51.536;3.816;2023-03-16T02:23:43;9.02;;;7.07;;
48685;SDS011;34485;51.536;3.816;2023-03-16T02:26:14;12.63;;;7.85;;
48685;SDS011;34485;51.536;3.816;2023-03-16T02:29:22;15.37;;;7.80;;
48685;SDS011;34485;51.536;3.816;2023-03-16T02:32:05;9.73;;;7.80;;
48685;SDS011;34485;51.536;3.816;2023-03-16T02:34:32;10.88;;;7.68;;
48685;SDS011;34485;51.536;3.816;2023-03-16T02:36:59;15.95;;;8.48;;
48685;SDS011;34485;51.536;3.816;2023-03-16T02:39:25;10.63;;;8.00;;
48685;SDS011;34485;51.536;3.816;2023-03-16T02:41:50;16.52;;;8.80;;
48685;SDS011;34485;51.536;3.816;2023-03-16T02:44:18;12.20;;;7.53;;
48685;SDS011;34485;51.536;3.816;2023-03-16T02:46:48;9.83;;;7.63;;
48685;SDS011;34485;51.536;3.816;2023-03-16T02:49:21;12.07;;;6.78;;
48685;SDS011;34485;51.536;3.816;2023-03-16T02:51:51;11.30;;;7.38;;
48685;SDS011;34485;51.536;3.816;2023-03-16T02:54:17;11.00;;;7.38;;
48685;SDS011;34485;51.536;3.816;2023-03-16T02:56:42;6.50;;;5.33;;
48685;SDS011;34485;51.536;3.816;2023-03-16T02:59:08;11.93;;;6.82;;
48685;SDS011;34485;51.536;3.816;2023-03-16T03:01:34;15.00;;;8.07;;
48685;SDS011;34485;51.536;3.816;2023-03-16T03:04:01;9.00;;;5.77;;
48685;SDS011;34485;51.536;3.816;2023-03-16T03:06:28;9.75;;;6.13;;
48685;SDS011;34485;51.536;3.816;2023-03-16T03:08:54;13.68;;;6.78;;
48685;SDS011;34485;51.536;3.816;2023-03-16T03:11:20;12.13;;;6.70;;
48685;SDS011;34485;51.536;3.816;2023-03-16T03:13:45;10.57;;;7.50;;
48685;SDS011;34485;51.536;3.816;2023-03-16T03:16:11;11.48;;;6.85;;
48685;SDS011;34485;51.536;3.816;2023-03-16T03:18:38;12.45;;;6.05;;
48685;SDS011;34485;51.536;3.816;2023-03-16T03:21:05;9.60;;;7.07;;
48685;SDS011;34485;51.536;3.816;2023-03-16T03:23:31;10.32;;;5.93;;
48685;SDS011;34485;51.536;3.816;2023-03-16T03:25:58;10.30;;;6.40;;
48685;SDS011;34485;51.536;3.816;2023-03-16T03:28:24;11.03;;;7.40;;
48685;SDS011;34485;51.536;3.816;2023-03-16T03:30:50;9.23;;;6.43;;
48685;SDS011;34485;51.536;3.816;2023-03-16T03:33:17;10.07;;;4.85;;
48685;SDS011;34485;51.536;3.816;2023-03-16T03:35:43;10.50;;;5.20;;
48685;SDS011;34485;51.536;3.816;2023-03-16T03:38:09;10.00;;;6.00;;
48685;SDS011;34485;51.536;3.816;2023-03-16T03:40:35;9.43;;;5.82;;
48685;SDS011;34485;51.536;3.816;2023-03-16T03:43:01;6.90;;;5.75;;
48685;SDS011;34485;51.536;3.816;2023-03-16T03:45:28;6.78;;;5.28;;
48685;SDS011;34485;51.536;3.816;2023-03-16T03:47:54;9.73;;;5.10;;
48685;SDS011;34485;51.536;3.816;2023-03-16T03:50:20;6.80;;;5.78;;
48685;SDS011;34485;51.536;3.816;2023-03-16T03:52:46;9.13;;;5.53;;
48685;SDS011;34485;51.536;3.816;2023-03-16T03:55:12;6.68;;;5.68;;
48685;SDS011;34485;51.536;3.816;2023-03-16T03:57:37;10.57;;;6.47;;
48685;SDS011;34485;51.536;3.816;2023-03-16T04:00:04;7.20;;;5.40;;
48685;SDS011;34485;51.536;3.816;2023-03-16T04:02:36;9.02;;;5.78;;
48685;SDS011;34485;51.536;3.816;2023-03-16T04:05:02;8.80;;;5.13;;
48685;SDS011;34485;51.536;3.816;2023-03-16T04:07:28;8.32;;;5.20;;
48685;SDS011;34485;51.536;3.816;2023-03-16T04:09:54;7.40;;;5.03;;
48685;SDS011;34485;51.536;3.816;2023-03-16T04:12:20;6.72;;;4.80;;
48685;SDS011;34485;51.536;3.816;2023-03-16T04:14:45;8.03;;;3.87;;
48685;SDS011;34485;51.536;3.816;2023-03-16T04:17:11;11.37;;;6.00;;
48685;SDS011;34485;51.536;3.816;2023-03-16T04:19:37;6.40;;;5.05;;
48685;SDS011;34485;51.536;3.816;2023-03-16T04:22:03;8.98;;;4.93;;
48685;SDS011;34485;51.536;3.816;2023-03-16T04:24:28;7.10;;;4.67;;
48685;SDS011;34485;51.536;3.816;2023-03-16T04:26:54;14.27;;;5.37;;
48685;SDS011;34485;51.536;3.816;2023-03-16T04:29:19;5.30;;;4.18;;
48685;SDS011;34485;51.536;3.816;2023-03-16T04:31:45;10.93;;;5.17;;
48685;SDS011;34485;51.536;3.816;2023-03-16T04:34:11;7.93;;;4.37;;
48685;SDS011;34485;51.536;3.816;2023-03-16T04:36:37;9.38;;;4.45;;
48685;SDS011;34485;51.536;3.816;2023-03-16T04:39:03;8.85;;;5.32;;
48685;SDS011;34485;51.536;3.816;2023-03-16T04:41:29;5.73;;;4.60;;
48685;SDS011;34485;51.536;3.816;2023-03-16T04:43:56;9.65;;;4.32;;
48685;SDS011;34485;51.536;3.816;2023-03-16T04:46:22;9.63;;;4.88;;
48685;SDS011;34485;51.536;3.816;2023-03-16T04:48:48;7.25;;;4.72;;
48685;SDS011;34485;51.536;3.816;2023-03-16T04:51:13;9.07;;;4.10;;
48685;SDS011;34485;51.536;3.816;2023-03-16T04:53:39;4.67;;;4.23;;
48685;SDS011;34485;51.536;3.816;2023-03-16T04:56:05;4.57;;;3.57;;
48685;SDS011;34485;51.536;3.816;2023-03-16T04:58:32;6.85;;;5.07;;
48685;SDS011;34485;51.536;3.816;2023-03-16T05:00:57;6.37;;;4.07;;
48685;SDS011;34485;51.536;3.816;2023-03-16T05:03:23;7.07;;;4.28;;
48685;SDS011;34485;51.536;3.816;2023-03-16T05:05:49;5.47;;;3.77;;
48685;SDS011;34485;51.536;3.816;2023-03-16T05:08:14;5.07;;;4.30;;
48685;SDS011;34485;51.536;3.816;2023-03-16T05:10:40;3.83;;;3.23;;
48685;SDS011;34485;51.536;3.816;2023-03-16T05:13:06;4.97;;;4.57;;
48685;SDS011;34485;51.536;3.816;2023-03-16T05:15:32;5.25;;;3.38;;
48685;SDS011;34485;51.536;3.816;2023-03-16T05:17:58;5.53;;;4.53;;
48685;SDS011;34485;51.536;3.816;2023-03-16T05:20:24;3.83;;;3.53;;
48685;SDS011;34485;51.536;3.816;2023-03-16T05:22:50;7.03;;;4.67;;
48685;SDS011;34485;51.536;3.816;2023-03-16T05:25:16;4.45;;;3.60;;
48685;SDS011;34485;51.536;3.816;2023-03-16T05:27:44;6.15;;;3.20;;
48685;SDS011;34485;51.536;3.816;2023-03-16T05:30:11;4.57;;;3.65;;
48685;SDS011;34485;51.536;3.816;2023-03-16T05:32:37;8.73;;;4.22;;
48685;SDS011;34485;51.536;3.816;2023-03-16T05:35:03;9.63;;;4.33;;
48685;SDS011;34485;51.536;3.816;2023-03-16T05:37:31;6.25;;;3.90;;
48685;SDS011;34485;51.536;3.816;2023-03-16T05:39:56;4.28;;;3.42;;
48685;SDS011;34485;51.536;3.816;2023-03-16T05:42:22;9.30;;;4.70;;
48685;SDS011;34485;51.536;3.816;2023-03-16T05:44:50;9.45;;;4.28;;
48685;SDS011;34485;51.536;3.816;2023-03-16T05:47:19;4.13;;;3.83;;
48685;SDS011;34485;51.536;3.816;2023-03-16T05:49:44;9.85;;;4.15;;
48685;SDS011;34485;51.536;3.816;2023-03-16T05:52:10;6.27;;;3.53;;
48685;SDS011;34485;51.536;3.816;2023-03-16T05:54:36;5.55;;;3.90;;
48685;SDS011;34485;51.536;3.816;2023-03-16T05:57:02;8.07;;;4.23;;
48685;SDS011;34485;51.536;3.816;2023-03-16T05:59:29;4.70;;;4.07;;
48685;SDS011;34485;51.536;3.816;2023-03-16T06:01:54;5.80;;;4.00;;
48685;SDS011;34485;51.536;3.816;2023-03-16T06:04:20;3.50;;;3.08;;
48685;SDS011;34485;51.536;3.816;2023-03-16T06:06:46;3.67;;;3.00;;
48685;SDS011;34485;51.536;3.816;2023-03-16T06:09:11;4.22;;;3.33;;
48685;SDS011;34485;51.536;3.816;2023-03-16T06:11:37;5.80;;;3.93;;
48685;SDS011;34485;51.536;3.816;2023-03-16T06:14:02;6.97;;;3.77;;
48685;SDS011;34485;51.536;3.816;2023-03-16T06:16:29;3.17;;;2.88;;
48685;SDS011;34485;51.536;3.816;2023-03-16T06:18:54;3.28;;;3.03;;
48685;SDS011;34485;51.536;3.816;2023-03-16T06:21:20;3.63;;;3.00;;
48685;SDS011;34485;51.536;3.816;2023-03-16T06:23:47;4.75;;;3.15;;
48685;SDS011;34485;51.536;3.816;2023-03-16T06:26:12;4.20;;;3.80;;
48685;SDS011;34485;51.536;3.816;2023-03-16T06:28:38;3.47;;;2.88;;
48685;SDS011;34485;51.536;3.816;2023-03-16T06:31:05;3.53;;;3.17;;
48685;SDS011;34485;51.536;3.816;2023-03-16T06:33:31;4.82;;;3.92;;
48685;SDS011;34485;51.536;3.816;2023-03-16T06:35:57;7.67;;;3.70;;
48685;SDS011;34485;51.536;3.816;2023-03-16T06:38:22;4.43;;;3.47;;
48685;SDS011;34485;51.536;3.816;2023-03-16T06:40:52;4.28;;;3.03;;
48685;SDS011;34485;51.536;3.816;2023-03-16T06:43:18;5.13;;;4.10;;
48685;SDS011;34485;51.536;3.816;2023-03-16T06:45:44;12.43;;;3.53;;
48685;SDS011;34485;51.536;3.816;2023-03-16T06:48:09;3.30;;;3.07;;
48685;SDS011;34485;51.536;3.816;2023-03-16T06:50:35;6.13;;;3.28;;
48685;SDS011;34485;51.536;3.816;2023-03-16T06:53:01;4.20;;;3.17;;
48685;SDS011;34485;51.536;3.816;2023-03-16T06:55:26;5.93;;;3.33;;
48685;SDS011;34485;51.536;3.816;2023-03-16T06:57:52;7.28;;;3.63;;
48685;SDS011;34485;51.536;3.816;2023-03-16T07:00:18;4.37;;;3.27;;
48685;SDS011;34485;51.536;3.816;2023-03-16T07:02:44;3.85;;;3.05;;
48685;SDS011;34485;51.536;3.816;2023-03-16T07:05:09;4.80;;;3.07;;
48685;SDS011;34485;51.536;3.816;2023-03-16T07:07:41;3.33;;;2.63;;
48685;SDS011;34485;51.536;3.816;2023-03-16T07:10:12;3.08;;;2.83;;
48685;SDS011;34485;51.536;3.816;2023-03-16T07:12:39;4.68;;;2.83;;
48685;SDS011;34485;51.536;3.816;2023-03-16T07:15:06;9.07;;;3.30;;
48685;SDS011;34485;51.536;3.816;2023-03-16T07:17:32;2.65;;;2.40;;
48685;SDS011;34485;51.536;3.816;2023-03-16T07:19:58;3.70;;;2.60;;
48685;SDS011;34485;51.536;3.816;2023-03-16T07:22:23;5.10;;;2.73;;
48685;SDS011;34485;51.536;3.816;2023-03-16T07:24:49;6.70;;;3.75;;
48685;SDS011;34485;51.536;3.816;2023-03-16T07:27:21;5.35;;;2.63;;
48685;SDS011;34485;51.536;3.816;2023-03-16T07:29:48;3.37;;;3.07;;
48685;SDS011;34485;51.536;3.816;2023-03-16T07:32:14;7.65;;;3.53;;
48685;SDS011;34485;51.536;3.816;2023-03-16T07:34:40;2.70;;;2.15;;
48685;SDS011;34485;51.536;3.816;2023-03-16T07:37:06;4.27;;;2.60;;
48685;SDS011;34485;51.536;3.816;2023-03-16T07:39:35;2.72;;;2.53;;
48685;SDS011;34485;51.536;3.816;2023-03-16T07:42:01;3.67;;;2.90;;
48685;SDS011;34485;51.536;3.816;2023-03-16T07:44:27;4.93;;;3.17;;
48685;SDS011;34485;51.536;3.816;2023-03-16T07:46:53;6.33;;;3.80;;
48685;SDS011;34485;51.536;3.816;2023-03-16T07:49:18;4.72;;;3.53;;
48685;SDS011;34485;51.536;3.816;2023-03-16T07:51:44;7.50;;;2.97;;
48685;SDS011;34485;51.536;3.816;2023-03-16T07:54:10;7.93;;;3.78;;
48685;SDS011;34485;51.536;3.816;2023-03-16T07:56:35;5.60;;;3.10;;
48685;SDS011;34485;51.536;3.816;2023-03-16T07:59:01;4.72;;;3.95;;
48685;SDS011;34485;51.536;3.816;2023-03-16T08:01:27;6.40;;;3.60;;
48685;SDS011;34485;51.536;3.816;2023-03-16T08:03:53;5.83;;;3.30;;
48685;SDS011;34485;51.536;3.816;2023-03-16T08:06:19;5.20;;;2.17;;
48685;SDS011;34485;51.536;3.816;2023-03-16T08:08:45;15.27;;;3.50;;
48685;SDS011;34485;51.536;3.816;2023-03-16T08:11:11;3.10;;;2.72;;
48685;SDS011;34485;51.536;3.816;2023-03-16T08:13:37;4.97;;;3.45;;
48685;SDS011;34485;51.536;3.816;2023-03-16T08:16:03;4.80;;;3.17;;
48685;SDS011;34485;51.536;3.816;2023-03-16T08:18:29;3.03;;;2.67;;
48685;SDS011;34485;51.536;3.816;2023-03-16T08:20:55;7.50;;;3.50;;
48685;SDS011;34485;51.536;3.816;2023-03-16T08:23:22;5.20;;;3.47;;
48685;SDS011;34485;51.536;3.816;2023-03-16T08:25:52;4.23;;;3.00;;
48685;SDS011;34485;51.536;3.816;2023-03-16T08:28:19;3.97;;;2.75;;
48685;SDS011;34485;51.536;3.816;2023-03-16T08:30:50;3.80;;;3.17;;
48685;SDS011;34485;51.536;3.816;2023-03-16T08:33:17;6.53;;;2.58;;
48685;SDS011;34485;51.536;3.816;2023-03-16T08:35:44;4.85;;;2.70;;
48685;SDS011;34485;51.536;3.816;2023-03-16T08:38:11;6.37;;;2.87;;
48685;SDS011;34485;51.536;3.816;2023-03-16T08:40:41;3.45;;;2.80;;
48685;SDS011;34485;51.536;3.816;2023-03-16T08:43:15;4.10;;;2.60;;
48685;SDS011;34485;51.536;3.816;2023-03-16T08:45:45;7.47;;;3.25;;
48685;SDS011;34485;51.536;3.816;2023-03-16T08:48:11;3.80;;;2.83;;
48685;SDS011;34485;51.536;3.816;2023-03-16T08:50:39;5.90;;;2.23;;
48685;SDS011;34485;51.536;3.816;2023-03-16T08:53:05;3.55;;;2.58;;
48685;SDS011;34485;51.536;3.816;2023-03-16T08:55:31;5.00;;;3.95;;
48685;SDS011;34485;51.536;3.816;2023-03-16T08:57:57;5.80;;;2.17;;
48685;SDS011;34485;51.536;3.816;2023-03-16T09:00:23;4.22;;;2.63;;
48685;SDS011;34485;51.536;3.816;2023-03-16T09:02:49;2.47;;;2.28;;
48685;SDS011;34485;51.536;3.816;2023-03-16T09:05:15;4.70;;;2.93;;
48685;SDS011;34485;51.536;3.816;2023-03-16T09:07:42;5.75;;;2.83;;
48685;SDS011;34485;51.536;3.816;2023-03-16T09:10:11;3.08;;;2.60;;
48685;SDS011;34485;51.536;3.816;2023-03-16T09:12:39;3.07;;;1.73;;
48685;SDS011;34485;51.536;3.816;2023-03-16T09:15:05;3.85;;;2.67;;
48685;SDS011;34485;51.536;3.816;2023-03-16T09:17:32;8.70;;;2.85;;
48685;SDS011;34485;51.536;3.816;2023-03-16T09:19:58;3.40;;;2.40;;
48685;SDS011;34485;51.536;3.816;2023-03-16T09:22:24;7.32;;;2.78;;
48685;SDS011;34485;51.536;3.816;2023-03-16T09:24:50;4.07;;;2.60;;
48685;SDS011;34485;51.536;3.816;2023-03-16T09:27:15;3.60;;;2.58;;
48685;SDS011;34485;51.536;3.816;2023-03-16T09:29:42;4.65;;;2.50;;
48685;SDS011;34485;51.536;3.816;2023-03-16T09:32:09;7.53;;;3.17;;
48685;SDS011;34485;51.536;3.816;2023-03-16T09:34:35;5.55;;;3.47;;
48685;SDS011;34485;51.536;3.816;2023-03-16T09:37:00;3.03;;;2.80;;
48685;SDS011;34485;51.536;3.816;2023-03-16T09:39:26;5.37;;;2.43;;
48685;SDS011;34485;51.536;3.816;2023-03-16T09:42:03;4.25;;;1.98;;
48685;SDS011;34485;51.536;3.816;2023-03-16T09:47:33;2.73;;;2.10;;
48685;SDS011;34485;51.536;3.816;2023-03-16T09:50:02;4.75;;;2.10;;
48685;SDS011;34485;51.536;3.816;2023-03-16T09:55:26;5.13;;;2.72;;
48685;SDS011;34485;51.536;3.816;2023-03-16T09:57:56;3.65;;;3.00;;
48685;SDS011;34485;51.536;3.816;2023-03-16T10:00:24;3.87;;;2.47;;
48685;SDS011;34485;51.536;3.816;2023-03-16T10:05:39;2.85;;;2.20;;
48685;SDS011;34485;51.536;3.816;2023-03-16T10:16:24;2.88;;;2.40;;
48685;SDS011;34485;51.536;3.816;2023-03-16T10:19:01;2.78;;;2.45;;
48685;SDS011;34485;51.536;3.816;2023-03-16T10:21:33;7.00;;;2.53;;
48685;SDS011;34485;51.536;3.816;2023-03-16T10:24:03;7.40;;;2.70;;
48685;SDS011;34485;51.536;3.816;2023-03-16T10:26:37;5.18;;;3.40;;
48685;SDS011;34485;51.536;3.816;2023-03-16T10:29:12;6.00;;;3.30;;
48685;SDS011;34485;51.536;3.816;2023-03-16T10:31:39;6.05;;;2.55;;
48685;SDS011;34485;51.536;3.816;2023-03-16T10:34:06;2.73;;;1.87;;
48685;SDS011;34485;51.536;3.816;2023-03-16T10:36:33;2.40;;;2.08;;
48685;SDS011;34485;51.536;3.816;2023-03-16T10:41:29;4.32;;;2.92;;
48685;SDS011;34485;51.536;3.816;2023-03-16T10:43:59;3.67;;;2.63;;
48685;SDS011;34485;51.536;3.816;2023-03-16T10:46:47;5.23;;;2.40;;
48685;SDS011;34485;51.536;3.816;2023-03-16T10:51:54;3.78;;;2.88;;
48685;SDS011;34485;51.536;3.816;2023-03-16T10:54:28;8.30;;;3.42;;
48685;SDS011;34485;51.536;3.816;2023-03-16T10:56:57;5.95;;;2.60;;
48685;SDS011;34485;51.536;3.816;2023-03-16T10:59:31;7.63;;;3.67;;
48685;SDS011;34485;51.536;3.816;2023-03-16T11:01:59;5.15;;;2.70;;
48685;SDS011;34485;51.536;3.816;2023-03-16T11:04:31;4.97;;;2.70;;
48685;SDS011;34485;51.536;3.816;2023-03-16T11:06:57;3.80;;;2.72;;
48685;SDS011;34485;51.536;3.816;2023-03-16T11:09:41;5.40;;;2.90;;
48685;SDS011;34485;51.536;3.816;2023-03-16T11:12:13;6.32;;;2.15;;
48685;SDS011;34485;51.536;3.816;2023-03-16T11:14:50;3.55;;;2.58;;
48685;SDS011;34485;51.536;3.816;2023-03-16T11:17:28;3.57;;;2.87;;
48685;SDS011;34485;51.536;3.816;2023-03-16T11:20:02;3.40;;;3.10;;
48685;SDS011;34485;51.536;3.816;2023-03-16T11:22:36;2.67;;;2.47;;
48685;SDS011;34485;51.536;3.816;2023-03-16T11:31:02;4.47;;;2.55;;
48685;SDS011;34485;51.536;3.816;2023-03-16T11:33:51;3.40;;;2.17;;
48685;SDS011;34485;51.536;3.816;2023-03-16T11:44:15;5.38;;;2.83;;
48685;SDS011;34485;51.536;3.816;2023-03-16T11:49:54;4.40;;;2.10;;
48685;SDS011;34485;51.536;3.816;2023-03-16T11:55:00;6.75;;;2.58;;
48685;SDS011;34485;51.536;3.816;2023-03-16T11:58:00;2.92;;;2.67;;
48685;SDS011;34485;51.536;3.816;2023-03-16T12:06:11;4.28;;;2.72;;
48685;SDS011;34485;51.536;3.816;2023-03-16T12:19:52;3.70;;;2.65;;
48685;SDS011;34485;51.536;3.816;2023-03-16T12:22:32;3.05;;;2.25;;
48685;SDS011;34485;51.536;3.816;2023-03-16T12:25:01;3.92;;;2.15;;
48685;SDS011;34485;51.536;3.816;2023-03-16T12:27:30;3.63;;;2.80;;
48685;SDS011;34485;51.536;3.816;2023-03-16T12:32:32;4.53;;;2.38;;
48685;SDS011;34485;51.536;3.816;2023-03-16T12:37:41;4.05;;;2.38;;
48685;SDS011;34485;51.536;3.816;2023-03-16T12:40:21;6.70;;;2.87;;
48685;SDS011;34485;51.536;3.816;2023-03-16T12:45:35;4.57;;;2.40;;
48685;SDS011;34485;51.536;3.816;2023-03-16T12:50:56;5.80;;;2.95;;
48685;SDS011;34485;51.536;3.816;2023-03-16T12:53:28;7.27;;;2.67;;
48685;SDS011;34485;51.536;3.816;2023-03-16T12:56:06;4.03;;;2.60;;
48685;SDS011;34485;51.536;3.816;2023-03-16T12:58:35;6.15;;;2.83;;
48685;SDS011;34485;51.536;3.816;2023-03-16T13:01:04;7.15;;;3.13;;
48685;SDS011;34485;51.536;3.816;2023-03-16T13:03:34;4.03;;;2.72;;
48685;SDS011;34485;51.536;3.816;2023-03-16T13:06:00;10.30;;;2.67;;
48685;SDS011;34485;51.536;3.816;2023-03-16T13:08:27;5.88;;;2.25;;
48685;SDS011;34485;51.536;3.816;2023-03-16T13:11:10;2.80;;;2.60;;
48685;SDS011;34485;51.536;3.816;2023-03-16T13:16:37;6.30;;;3.05;;
48685;SDS011;34485;51.536;3.816;2023-03-16T13:22:17;5.78;;;2.55;;
48685;SDS011;34485;51.536;3.816;2023-03-16T13:27:47;3.47;;;2.25;;
48685;SDS011;34485;51.536;3.816;2023-03-16T13:32:47;4.37;;;2.63;;
48685;SDS011;34485;51.536;3.816;2023-03-16T13:35:18;7.00;;;4.03;;
48685;SDS011;34485;51.536;3.816;2023-03-16T13:37:45;2.72;;;2.45;;
48685;SDS011;34485;51.536;3.816;2023-03-16T13:40:17;5.25;;;3.25;;
48685;SDS011;34485;51.536;3.816;2023-03-16T13:42:51;5.43;;;2.80;;
48685;SDS011;34485;51.536;3.816;2023-03-16T13:45:26;6.93;;;3.17;;
48685;SDS011;34485;51.536;3.816;2023-03-16T13:47:57;2.70;;;2.38;;
48685;SDS011;34485;51.536;3.816;2023-03-16T13:50:25;2.65;;;2.45;;
48685;SDS011;34485;51.536;3.816;2023-03-16T13:52:56;4.68;;;3.05;;
48685;SDS011;34485;51.536;3.816;2023-03-16T13:55:30;2.22;;;2.13;;
48685;SDS011;34485;51.536;3.816;2023-03-16T13:57:56;3.17;;;2.00;;
48685;SDS011;34485;51.536;3.816;2023-03-16T14:00:23;5.40;;;3.05;;
48685;SDS011;34485;51.536;3.816;2023-03-16T14:02:54;6.13;;;2.63;;
48685;SDS011;34485;51.536;3.816;2023-03-16T14:05:25;3.78;;;2.40;;
48685;SDS011;34485;51.536;3.816;2023-03-16T14:07:52;4.73;;;2.27;;
48685;SDS011;34485;51.536;3.816;2023-03-16T14:10:19;3.33;;;2.60;;
48685;SDS011;34485;51.536;3.816;2023-03-16T14:12:53;2.70;;;2.42;;
48685;SDS011;34485;51.536;3.816;2023-03-16T14:15:30;3.03;;;2.28;;
48685;SDS011;34485;51.536;3.816;2023-03-16T14:18:03;5.27;;;2.50;;
48685;SDS011;34485;51.536;3.816;2023-03-16T14:20:38;3.70;;;2.38;;
48685;SDS011;34485;51.536;3.816;2023-03-16T14:23:04;2.80;;;2.50;;
48685;SDS011;34485;51.536;3.816;2023-03-16T14:25:39;5.30;;;2.40;;
48685;SDS011;34485;51.536;3.816;2023-03-16T14:28:05;3.57;;;2.63;;
48685;SDS011;34485;51.536;3.816;2023-03-16T14:30:31;4.55;;;2.50;;
48685;SDS011;34485;51.536;3.816;2023-03-16T14:33:19;4.10;;;2.83;;
48685;SDS011;34485;51.536;3.816;2023-03-16T14:35:54;4.23;;;2.73;;
48685;SDS011;34485;51.536;3.816;2023-03-16T14:38:28;7.22;;;3.20;;
48685;SDS011;34485;51.536;3.816;2023-03-16T14:41:10;5.38;;;2.38;;
48685;SDS011;34485;51.536;3.816;2023-03-16T14:43:47;4.60;;;2.15;;
48685;SDS011;34485;51.536;3.816;2023-03-16T14:49:18;4.60;;;2.63;;
48685;SDS011;34485;51.536;3.816;2023-03-16T14:51:53;5.22;;;3.17;;
48685;SDS011;34485;51.536;3.816;2023-03-16T14:54:23;8.18;;;2.88;;
48685;SDS011;34485;51.536;3.816;2023-03-16T14:56:51;5.70;;;2.58;;
48685;SDS011;34485;51.536;3.816;2023-03-16T14:59:19;3.00;;;2.70;;
48685;SDS011;34485;51.536;3.816;2023-03-16T15:01:45;5.93;;;2.37;;
48685;SDS011;34485;51.536;3.816;2023-03-16T15:04:13;4.45;;;1.90;;
48685;SDS011;34485;51.536;3.816;2023-03-16T15:06:40;6.22;;;1.92;;
48685;SDS011;34485;51.536;3.816;2023-03-16T15:09:06;9.32;;;3.10;;
48685;SDS011;34485;51.536;3.816;2023-03-16T15:11:51;3.97;;;2.70;;
48685;SDS011;34485;51.536;3.816;2023-03-16T15:14:19;6.53;;;2.72;;
48685;SDS011;34485;51.536;3.816;2023-03-16T15:17:05;5.00;;;3.40;;
48685;SDS011;34485;51.536;3.816;2023-03-16T15:19:32;4.57;;;2.65;;
48685;SDS011;34485;51.536;3.816;2023-03-16T15:21:57;3.07;;;2.53;;
48685;SDS011;34485;51.536;3.816;2023-03-16T15:24:25;4.78;;;2.83;;
48685;SDS011;34485;51.536;3.816;2023-03-16T15:26:52;7.40;;;3.65;;
48685;SDS011;34485;51.536;3.816;2023-03-16T15:29:18;6.03;;;3.60;;
48685;SDS011;34485;51.536;3.816;2023-03-16T15:31:44;6.53;;;3.55;;
48685;SDS011;34485;51.536;3.816;2023-03-16T15:34:10;4.95;;;3.20;;
48685;SDS011;34485;51.536;3.816;2023-03-16T15:36:36;5.50;;;4.90;;
48685;SDS011;34485;51.536;3.816;2023-03-16T15:39:03;5.80;;;3.90;;
48685;SDS011;34485;51.536;3.816;2023-03-16T15:41:29;5.87;;;3.07;;
48685;SDS011;34485;51.536;3.816;2023-03-16T15:43:55;3.42;;;3.10;;
48685;SDS011;34485;51.536;3.816;2023-03-16T15:46:26;4.93;;;3.45;;
48685;SDS011;34485;51.536;3.816;2023-03-16T15:48:52;12.45;;;4.22;;
48685;SDS011;34485;51.536;3.816;2023-03-16T15:51:26;4.23;;;3.30;;
48685;SDS011;34485;51.536;3.816;2023-03-16T15:53:58;6.53;;;5.43;;
48685;SDS011;34485;51.536;3.816;2023-03-16T15:56:30;8.50;;;6.88;;
48685;SDS011;34485;51.536;3.816;2023-03-16T15:59:00;6.28;;;5.15;;
48685;SDS011;34485;51.536;3.816;2023-03-16T16:01:30;4.90;;;3.47;;
48685;SDS011;34485;51.536;3.816;2023-03-16T16:04:02;8.75;;;6.95;;
48685;SDS011;34485;51.536;3.816;2023-03-16T16:06:30;7.72;;;5.05;;
48685;SDS011;34485;51.536;3.816;2023-03-16T16:08:56;5.60;;;5.03;;
48685;SDS011;34485;51.536;3.816;2023-03-16T16:11:25;9.90;;;8.45;;
48685;SDS011;34485;51.536;3.816;2023-03-16T16:13:53;8.30;;;6.20;;
48685;SDS011;34485;51.536;3.816;2023-03-16T16:16:20;5.97;;;3.42;;
48685;SDS011;34485;51.536;3.816;2023-03-16T16:18:46;4.90;;;4.40;;
48685;SDS011;34485;51.536;3.816;2023-03-16T16:21:16;5.87;;;4.60;;